Adelaide, California
Current Conditions -  °F | °C
As of 11:53 PM on Wednesday 22 Oct 2014 (Local Time) from KPRB Reporting Station
Clear Clear  
Wind Chill: 54°   Ceiling: Unl
Heat Index: 54°   Visibility: 10mi
Dew Point: 36°   Wind: 5mph
Humidity: 51%   Direction: 50°NE
Pressure: 30.04"   Gusts: NA
Location:  35.6618°N, 120.707°W
Report Text: KPRB 230653Z AUTO 05004KT 10SM CLR 12/02 A3004 RMK AO2 SLP168 T01220022 TSNO
Loading
Personal Weather Stations






























Interactive Weather Map
Tropical Storm Tracking
New forecast layout! Learn more

10-Day Weather Forecast

Advertisements
Track Severe Weather on mobile